Time;durP1;ratioP1;P1;durP2;ratioP2;P2;SDS_P1;SDS_P2;PMS_P1;PMS_P2;Temp;Humidity;BMP_temperature;BMP_pressure;BME280_temperature;BME280_humidity;BME280_pressure;Samples;Min_cycle;Max_cycle;Signal;HPM_P1;HPM_P2
2022/05/18 00:05:01;;;;;;;4.78;2.70;;;;;;;16.53;62.81;96398.59;10401924;28;99293;-70
2022/05/18 00:10:06;;;;;;;5.63;2.90;;;;;;;16.56;62.97;96399.06;10413948;27;96912;-69
2022/05/18 00:15:10;;;;;;;3.95;3.00;;;;;;;16.57;63.04;96397.25;10402753;28;97214;-68
2022/05/18 00:20:14;;;;;;;5.00;2.63;;;;;;;16.45;63.11;96396.91;10415744;27;96857;-70
2022/05/18 00:25:20;;;;;;;5.03;2.60;;;;;;;16.50;63.00;96399.81;10412988;27;96883;-69
2022/05/18 00:30:26;;;;;;;5.07;2.80;;;;;;;16.36;63.84;96406.69;10430759;27;96963;-70
2022/05/18 00:35:30;;;;;;;4.90;2.60;;;;;;;16.20;64.40;96410.28;10412520;27;98390;-70
2022/05/18 00:40:36;;;;;;;4.40;3.10;;;;;;;16.15;63.98;96412.63;10411608;28;97383;-70
2022/05/18 00:45:39;;;;;;;4.18;2.35;;;;;;;16.32;63.56;96415.13;10409226;27;97588;-70
2022/05/18 00:50:43;;;;;;;5.18;2.58;;;;;;;16.21;64.08;96419.03;10408195;28;97890;-69
2022/05/18 00:55:52;;;;;;;3.57;2.70;;;;;;;15.97;65.12;96423.50;10410644;27;97690;-69
2022/05/18 01:00:56;;;;;;;5.10;2.75;;;;;;;15.90;64.57;96413.88;10417838;28;96982;-69
2022/05/18 01:06:04;;;;;;;5.78;2.55;;;;;;;16.09;64.07;96418.63;10417290;27;97834;-70
2022/05/18 01:11:09;;;;;;;5.45;2.17;;;;;;;16.22;63.66;96429.41;10416093;27;97055;-70
2022/05/18 01:16:11;;;;;;;5.60;3.00;;;;;;;16.35;63.21;96423.50;10419366;27;96805;-70
2022/05/18 01:21:14;;;;;;;6.22;2.58;;;;;;;16.39;62.29;96429.25;10416572;27;96757;-70
2022/05/18 01:26:22;;;;;;;6.97;2.72;;;;;;;16.00;63.92;96422.34;10402647;27;97685;-70
2022/05/18 01:31:49;;;;;;;3.22;2.40;;;;;;;15.62;65.19;96423.09;10408229;27;96960;-69
2022/05/18 01:36:52;;;;;;;4.30;2.92;;;;;;;15.35;66.59;96428.81;10417674;27;96856;-70
2022/05/18 01:42:02;;;;;;;3.85;2.53;;;;;;;15.33;66.67;96426.38;10409756;27;98497;-70
2022/05/18 01:47:07;;;;;;;6.35;2.50;;;;;;;15.37;66.38;96434.72;10411340;27;100425;-69
2022/05/18 01:52:11;;;;;;;4.10;2.50;;;;;;;15.59;65.39;96441.06;10413258;28;97266;-69
2022/05/18 01:57:15;;;;;;;4.23;2.67;;;;;;;15.49;65.92;96444.72;10408906;28;98709;-69
2022/05/18 02:02:19;;;;;;;4.13;2.53;;;;;;;15.33;67.02;96444.78;10417577;27;96835;-70
2022/05/18 02:07:22;;;;;;;;;;;;;;;15.20;65.83;96447.97;10415970;27;98834;-70
2022/05/18 02:12:25;;;;;;;4.05;2.65;;;;;;;15.09;66.38;96449.16;10410277;28;98014;-70
2022/05/18 02:17:30;;;;;;;5.80;2.63;;;;;;;15.31;65.62;96447.59;10400298;27;98507;-70
2022/05/18 02:22:32;;;;;;;5.78;2.75;;;;;;;15.41;65.58;96449.19;10403169;28;96842;-69
2022/05/18 02:27:36;;;;;;;3.17;2.63;;;;;;;15.47;65.66;96446.69;10425311;27;96739;-70
2022/05/18 02:32:40;;;;;;;3.97;2.78;;;;;;;15.42;66.57;96449.00;10407741;27;98020;-69
2022/05/18 02:37:43;;;;;;;5.18;2.95;;;;;;;15.35;66.44;96453.31;10419242;27;98155;-69
2022/05/18 02:42:46;;;;;;;5.00;2.92;;;;;;;14.95;67.77;96455.13;10405955;28;98134;-69
2022/05/18 02:47:50;;;;;;;5.10;3.15;;;;;;;14.91;66.23;96457.28;10409041;27;96907;-70
2022/05/18 02:52:53;;;;;;;4.13;2.88;;;;;;;14.82;67.36;96446.94;10408727;27;97956;-70
2022/05/18 02:57:56;;;;;;;3.83;2.50;;;;;;;14.74;67.83;96469.66;10413682;27;99214;-69
2022/05/18 03:03:00;;;;;;;5.60;3.08;;;;;;;14.52;68.14;96471.19;10407650;27;98719;-70
2022/05/18 03:08:03;;;;;;;5.23;3.10;;;;;;;14.29;69.27;96464.94;10407101;27;103244;-69
2022/05/18 03:13:06;;;;;;;4.85;2.67;;;;;;;14.20;69.14;96464.13;10415685;27;96901;-69
2022/05/18 03:18:10;;;;;;;4.28;2.85;;;;;;;14.44;68.87;96473.03;10406739;27;98862;-69
2022/05/18 03:28:34;;;;;;;4.88;2.92;;;;;;;14.18;69.69;96473.97;10414704;28;96739;-69
2022/05/18 03:33:39;;;;;;;4.47;3.10;;;;;;;14.42;68.37;96474.97;10401737;28;97900;-70
2022/05/18 03:38:43;;;;;;;5.60;3.03;;;;;;;14.36;69.21;96472.03;10424219;27;98909;-69
2022/05/18 03:43:46;;;;;;;4.80;2.92;;;;;;;14.35;68.90;96483.53;10414376;27;99008;-69
2022/05/18 03:48:51;;;;;;;6.70;3.08;;;;;;;14.54;68.32;96486.78;10414580;28;97264;-70
2022/05/18 03:53:53;;;;;;;8.40;3.27;;;;;;;14.54;68.31;96484.16;10410343;27;97727;-69
2022/05/18 03:58:57;;;;;;;4.72;3.30;;;;;;;14.13;69.86;96494.66;10412174;28;97282;-68
2022/05/18 04:04:01;;;;;;;4.65;3.22;;;;;;;13.96;70.04;96494.66;10407345;28;97364;-69
2022/05/18 04:09:04;;;;;;;3.83;2.95;;;;;;;14.09;69.78;96501.22;10414961;28;98215;-69
2022/05/18 04:14:07;;;;;;;3.88;2.60;;;;;;;14.26;68.91;96496.78;10405761;27;97462;-67
2022/05/18 04:19:11;;;;;;;5.60;2.80;;;;;;;14.36;68.02;96500.94;10410486;27;96994;-69
2022/05/18 04:24:14;;;;;;;5.13;3.07;;;;;;;14.42;68.26;96507.34;10414494;28;97935;-69
2022/05/18 04:29:17;;;;;;;5.47;2.90;;;;;;;14.47;68.38;96504.22;10413572;27;97398;-70
2022/05/18 04:34:22;;;;;;;3.42;2.85;;;;;;;14.50;68.38;96501.25;10417173;27;97722;-69
2022/05/18 04:39:25;;;;;;;5.75;2.90;;;;;;;14.33;68.87;96519.69;10408153;27;97049;-70
2022/05/18 04:44:28;;;;;;;3.95;2.78;;;;;;;14.42;67.75;96519.66;10412785;27;96961;-70
2022/05/18 04:49:32;;;;;;;6.03;3.15;;;;;;;14.41;68.27;96536.44;10413399;28;96925;-70
2022/05/18 04:54:36;;;;;;;4.60;2.67;;;;;;;14.59;67.02;96525.72;10411033;27;96751;-70
2022/05/18 04:59:39;;;;;;;6.82;2.90;;;;;;;14.67;67.15;96534.44;10416739;27;97094;-69
2022/05/18 05:04:44;;;;;;;4.65;2.88;;;;;;;14.75;68.06;96539.69;10414292;28;97836;-69
2022/05/18 05:09:47;;;;;;;6.03;2.97;;;;;;;14.70;68.58;96538.56;10416196;27;98048;-69
2022/05/18 05:14:50;;;;;;;5.38;3.20;;;;;;;14.80;68.88;96544.47;10404051;28;97421;-70
2022/05/18 05:19:54;;;;;;;5.80;3.35;;;;;;;15.01;68.04;96546.56;10411233;27;98108;-69
2022/05/18 05:24:57;;;;;;;5.03;3.23;;;;;;;15.08;67.94;96551.97;10403971;28;96931;-70
2022/05/18 05:30:00;;;;;;;5.50;3.50;;;;;;;15.15;68.00;96547.66;10413087;27;98448;-69
2022/05/18 05:35:06;;;;;;;6.03;3.70;;;;;;;15.28;68.29;96547.94;10417212;27;98514;-69
2022/05/18 05:40:09;;;;;;;5.50;2.72;;;;;;;15.49;66.85;96552.66;10411563;27;97017;-70
2022/05/18 05:45:13;;;;;;;6.43;3.03;;;;;;;15.53;65.14;96555.78;10415418;27;96893;-69
2022/05/18 05:50:17;;;;;;;3.80;2.33;;;;;;;15.64;65.01;96563.31;10405346;27;97916;-70
2022/05/18 05:55:21;;;;;;;5.28;3.42;;;;;;;15.86;65.93;96558.28;10406610;27;96868;-71
2022/05/18 06:00:25;;;;;;;5.07;2.97;;;;;;;16.13;65.01;96556.94;10409835;28;96957;-69
2022/05/18 06:05:29;;;;;;;4.90;2.97;;;;;;;16.29;64.06;96555.22;10409576;27;98881;-70
2022/05/18 06:10:34;;;;;;;9.07;3.70;;;;;;;16.43;64.64;96557.06;10404518;27;96873;-70
2022/05/18 06:15:37;;;;;;;9.52;3.92;;;;;;;16.57;64.82;96552.84;10406164;27;97939;-70
2022/05/18 06:20:42;;;;;;;7.68;3.72;;;;;;;16.81;64.56;96543.94;10409712;27;97671;-69
2022/05/18 06:25:46;;;;;;;9.25;4.00;;;;;;;16.99;63.65;96541.78;10407307;27;98830;-70
2022/05/18 06:30:49;;;;;;;7.50;3.53;;;;;;;17.11;64.10;96543.97;10404824;27;97895;-69
2022/05/18 06:35:54;;;;;;;10.05;3.63;;;;;;;17.18;64.01;96547.53;10414590;27;97743;-70
2022/05/18 06:46:19;;;;;;;7.78;3.72;;;;;;;17.45;63.04;96548.69;10400782;28;98303;-69
2022/05/18 06:51:26;;;;;;;7.30;3.35;;;;;;;17.66;63.26;96549.78;10416800;27;98008;-66
2022/05/18 06:56:31;;;;;;;5.00;2.92;;;;;;;17.81;61.99;96545.28;10423874;27;97678;-66
2022/05/18 07:01:35;;;;;;;6.45;2.80;;;;;;;18.04;61.66;96545.16;10416912;27;97171;-66
2022/05/18 07:06:43;;;;;;;6.28;2.65;;;;;;;18.27;60.72;96544.16;10402243;27;96725;-66
2022/05/18 07:11:49;;;;;;;4.53;2.90;;;;;;;18.41;59.61;96543.31;10409766;27;100645;-66
2022/05/18 07:16:53;;;;;;;5.82;3.17;;;;;;;18.52;59.65;96547.25;10395538;27;97743;-66
2022/05/18 07:21:57;;;;;;;7.63;3.17;;;;;;;18.68;59.45;96546.16;10416386;27;97062;-66
2022/05/18 07:27:00;;;;;;;;;;;;;;;18.78;59.35;96541.38;10413184;27;98200;-66
2022/05/18 07:32:16;;;;;;;6.53;2.80;;;;;;;18.88;59.18;96547.19;10412626;27;96900;-66
2022/05/18 07:37:21;;;;;;;5.35;2.83;;;;;;;19.02;58.63;96553.38;10419853;27;103526;-66
2022/05/18 07:42:24;;;;;;;4.45;3.00;;;;;;;19.11;58.51;96547.94;10422795;27;97135;-66
2022/05/18 07:47:31;;;;;;;4.18;3.00;;;;;;;19.22;57.33;96550.84;10437382;27;96969;-66
2022/05/18 07:52:35;;;;;;;6.32;3.00;;;;;;;19.41;57.15;96546.69;10443022;27;96692;-66
2022/05/18 07:57:38;;;;;;;;;;;;;;;19.48;56.80;96546.72;10451066;27;96745;-66
2022/05/18 08:02:41;;;;;;;7.50;2.90;;;;;;;19.65;58.12;96546.41;10441057;27;97082;-66
2022/05/18 08:07:47;;;;;;;6.15;2.85;;;;;;;19.80;56.81;96539.09;10442945;27;97406;-66
2022/05/18 08:18:11;;;;;;;6.45;3.20;;;;;;;19.96;56.46;96538.78;10444757;27;96914;-66
2022/05/18 08:23:16;;;;;;;4.50;2.83;;;;;;;20.09;56.58;96539.84;10439396;27;96726;-66
2022/05/18 08:28:19;;;;;;;5.65;3.10;;;;;;;20.28;56.12;96531.09;10446721;27;96894;-66
2022/05/18 08:33:23;;;;;;;4.93;2.83;;;;;;;20.38;55.52;96536.84;10434484;27;99668;-66
2022/05/18 08:38:27;;;;;;;5.43;2.50;;;;;;;20.50;55.09;96536.25;10435958;27;97042;-66
2022/05/18 08:43:34;;;;;;;5.22;3.03;;;;;;;20.54;54.50;96535.63;10443683;27;97136;-66
2022/05/18 08:48:44;;;;;;;4.40;2.70;;;;;;;20.61;54.95;96535.63;10449001;27;97442;-66
2022/05/18 08:53:59;;;;;;;7.32;3.03;;;;;;;20.74;54.68;96543.63;10439412;27;99852;-66
2022/05/18 08:59:05;;;;;;;4.32;2.78;;;;;;;20.78;53.79;96535.25;10439003;27;97145;-66
2022/05/18 09:04:12;;;;;;;5.38;2.88;;;;;;;20.92;53.73;96531.56;10446973;27;98028;-66
2022/05/18 09:14:51;;;;;;;5.38;3.25;;;;;;;21.16;53.12;96522.13;10438923;27;96801;-66
2022/05/18 09:20:12;;;;;;;5.57;3.13;;;;;;;21.17;53.30;96517.63;10438890;27;96722;-66
2022/05/18 09:25:27;;;;;;;4.50;2.78;;;;;;;21.24;53.53;96513.13;10416380;27;96738;-66
2022/05/18 09:30:41;;;;;;;6.40;3.10;;;;;;;21.42;53.18;96505.31;10427036;27;98495;-66
2022/05/18 09:35:58;;;;;;;4.25;2.70;;;;;;;21.60;53.13;96498.50;10437336;27;101700;-66
2022/05/18 09:41:07;;;;;;;4.60;2.75;;;;;;;21.68;52.96;96496.44;10437997;27;96842;-66
2022/05/18 09:46:13;;;;;;;6.47;3.20;;;;;;;21.81;52.43;96492.88;10446216;27;96904;-66
2022/05/18 09:51:16;;;;;;;6.07;2.90;;;;;;;21.88;52.80;96493.69;10442729;27;96747;-66
2022/05/18 09:56:27;;;;;;;5.63;3.20;;;;;;;21.96;52.75;96491.81;10437909;27;96864;-66
2022/05/18 10:12:22;;;;;;;6.60;3.25;;;;;;;22.26;52.22;96481.38;10441113;27;96851;-66
2022/05/18 10:17:32;;;;;;;5.72;2.83;;;;;;;22.51;52.25;96484.09;10440309;27;97018;-66
2022/05/18 10:22:39;;;;;;;3.75;2.70;;;;;;;22.62;51.52;96482.56;10447088;27;96840;-66
2022/05/18 10:27:46;;;;;;;3.97;2.80;;;;;;;22.57;51.25;96475.22;10454589;27;96895;-66
2022/05/18 10:32:55;;;;;;;5.82;3.05;;;;;;;22.73;50.92;96478.38;10442716;27;97019;-66
2022/05/18 10:38:01;;;;;;;5.32;3.00;;;;;;;22.85;51.24;96470.47;10443625;27;96733;-66
2022/05/18 10:43:25;;;;;;;5.13;3.05;;;;;;;22.98;50.64;96467.69;10452738;27;96815;-66
2022/05/18 10:48:55;;;;;;;8.55;3.10;;;;;;;23.15;50.87;96460.75;10432317;27;96927;-66
2022/05/18 10:54:10;;;;;;;3.78;2.65;;;;;;;23.40;49.50;96457.22;10440370;27;96811;-66
2022/05/18 10:59:24;;;;;;;4.85;2.70;;;;;;;23.41;48.99;96447.34;10437167;27;96824;-66
2022/05/18 11:04:31;;;;;;;3.90;2.63;;;;;;;23.36;48.94;96438.19;10442626;27;97029;-66
2022/05/18 11:09:35;;;;;;;3.95;2.70;;;;;;;23.50;48.89;96432.69;10445562;27;96809;-66
2022/05/18 11:14:47;;;;;;;3.63;2.50;;;;;;;23.74;48.21;96429.09;10437804;27;96790;-66
2022/05/18 11:20:02;;;;;;;5.82;2.60;;;;;;;23.85;47.23;96432.00;10438909;27;96737;-66
2022/05/18 11:25:18;;;;;;;5.55;2.30;;;;;;;24.02;46.73;96425.00;10416894;27;97681;-66
2022/05/18 11:30:47;;;;;;;5.93;2.60;;;;;;;24.11;46.47;96418.31;10428586;27;96692;-66
2022/05/18 11:35:58;;;;;;;3.50;2.50;;;;;;;24.27;45.28;96418.69;10437111;27;97020;-66
2022/05/18 11:41:12;;;;;;;4.40;2.25;;;;;;;24.33;45.04;96415.06;10436771;27;96973;-66
2022/05/18 11:46:54;;;;;;;4.47;2.23;;;;;;;24.40;45.37;96412.28;10445165;27;97112;-66
2022/05/18 11:52:11;;;;;;;4.55;2.22;;;;;;;24.36;45.27;96400.47;10415250;27;96703;-66
2022/05/18 11:57:26;;;;;;;7.55;3.10;;;;;;;24.48;45.77;96393.28;10440729;27;96797;-66
2022/05/18 12:02:49;;;;;;;5.55;2.22;;;;;;;24.81;44.18;96392.69;10434847;27;97028;-66
2022/05/18 12:08:27;;;;;;;4.88;2.50;;;;;;;25.08;44.27;96381.50;10436916;27;97917;-66
2022/05/18 12:13:41;;;;;;;3.95;2.50;;;;;;;25.25;44.04;96377.03;10416198;27;96745;-66
2022/05/18 12:18:48;;;;;;;4.20;2.53;;;;;;;25.38;43.38;96377.81;10445980;27;96875;-66
2022/05/18 12:23:58;;;;;;;7.13;2.42;;;;;;;25.41;43.10;96374.66;10435667;27;97076;-66
2022/05/18 12:29:06;;;;;;;5.45;2.72;;;;;;;25.44;43.30;96379.50;10434980;27;96939;-66
2022/05/18 12:34:20;;;;;;;3.95;2.28;;;;;;;25.55;43.34;96375.22;10443865;27;96913;-66
2022/05/18 12:39:43;;;;;;;5.43;2.33;;;;;;;25.78;43.21;96363.56;10442226;27;96802;-66
2022/05/18 12:44:51;;;;;;;5.70;2.50;;;;;;;25.67;42.36;96369.78;10434628;27;97180;-66
2022/05/18 12:50:01;;;;;;;5.22;2.33;;;;;;;25.61;43.60;96364.34;10435327;27;96891;-66
2022/05/18 12:55:19;;;;;;;3.28;2.00;;;;;;;25.94;42.57;96361.97;10412054;27;97076;-66
2022/05/18 13:00:45;;;;;;;5.15;2.30;;;;;;;26.11;42.63;96345.91;10441011;27;97086;-66
2022/05/18 13:05:54;;;;;;;3.05;2.30;;;;;;;26.25;42.48;96341.88;10433990;27;96980;-66
2022/05/18 13:11:16;;;;;;;5.03;2.30;;;;;;;26.55;41.84;96346.06;10433837;27;97357;-66
2022/05/18 13:16:18;;;;;;;4.70;2.30;;;;;;;26.63;41.29;96336.78;10413666;27;96696;-66
2022/05/18 13:21:28;;;;;;;7.53;2.37;;;;;;;26.92;40.68;96334.75;10440334;27;96854;-66
2022/05/18 13:26:38;;;;;;;4.72;1.83;;;;;;;26.91;39.69;96328.56;10433253;27;97700;-66
2022/05/18 13:31:41;;;;;;;6.05;2.30;;;;;;;27.00;40.00;96330.84;10436917;27;96856;-66
2022/05/18 13:36:48;;;;;;;2.95;2.10;;;;;;;26.99;39.40;96319.31;10443442;27;97023;-66
2022/05/18 13:41:58;;;;;;;4.20;2.15;;;;;;;27.42;38.58;96320.34;10434878;27;96827;-66
2022/05/18 13:47:06;;;;;;;2.85;1.98;;;;;;;27.83;38.03;96317.22;10431640;27;97569;-66
2022/05/18 13:52:12;;;;;;;4.68;2.20;;;;;;;27.72;37.80;96321.72;10441255;27;96974;-66
2022/05/18 13:57:27;;;;;;;5.20;2.10;;;;;;;28.00;37.86;96317.09;10439667;27;96816;-66
2022/05/18 14:02:35;;;;;;;4.40;2.03;;;;;;;28.76;35.99;96307.94;10432211;27;96753;-66
2022/05/18 14:07:40;;;;;;;3.53;2.13;;;;;;;28.93;36.23;96308.56;10435307;27;96709;-66
2022/05/18 14:13:05;;;;;;;6.15;1.92;;;;;;;29.43;34.85;96305.47;10411819;27;96837;-66
2022/05/18 14:18:15;;;;;;;4.55;1.80;;;;;;;30.59;34.03;96300.34;10434587;27;96911;-67
2022/05/18 14:23:46;;;;;;;4.70;2.00;;;;;;;31.75;32.62;96309.25;10433081;27;96776;-67
2022/05/18 14:28:54;;;;;;;2.72;1.63;;;;;;;32.91;30.51;96297.59;10433126;27;96912;-67
2022/05/18 14:34:01;;;;;;;6.10;2.13;;;;;;;33.82;29.18;96295.81;10443293;27;96964;-67
2022/05/18 14:39:07;;;;;;;3.22;1.83;;;;;;;34.48;28.31;96293.88;10434278;27;96851;-67
2022/05/18 14:44:14;;;;;;;5.18;1.90;;;;;;;35.25;27.05;96295.13;10431706;27;97942;-67
2022/05/18 14:49:26;;;;;;;6.13;2.00;;;;;;;35.37;26.84;96291.84;10436192;27;96997;-67
2022/05/18 14:54:35;;;;;;;3.03;1.40;;;;;;;36.10;25.73;96288.25;10418994;27;96826;-67
2022/05/18 14:59:46;;;;;;;2.90;1.50;;;;;;;36.32;24.96;96276.56;10431073;27;96683;-67
2022/05/18 15:04:58;;;;;;;4.18;1.70;;;;;;;36.54;24.88;96272.97;10437785;27;96960;-67
2022/05/18 15:10:04;;;;;;;2.88;1.70;;;;;;;36.41;25.43;96275.47;10416652;27;96910;-67
2022/05/18 15:15:22;;;;;;;2.78;1.58;;;;;;;37.15;24.41;96275.88;10440669;27;96899;-67
2022/05/18 15:20:36;;;;;;;2.72;1.27;;;;;;;37.31;23.98;96260.69;10436919;27;96879;-67
2022/05/18 15:25:47;;;;;;;4.53;1.50;;;;;;;37.18;24.13;96258.91;10439566;27;96700;-67
2022/05/18 15:30:55;;;;;;;4.27;1.43;;;;;;;37.54;23.85;96260.53;10409464;27;97037;-67
2022/05/18 15:36:02;;;;;;;3.03;1.55;;;;;;;37.42;23.45;96263.09;10401932;27;96671;-67
2022/05/18 15:41:05;;;;;;;2.22;1.25;;;;;;;37.65;23.23;96248.19;10426295;27;97316;-67
2022/05/18 15:46:13;;;;;;;3.55;1.50;;;;;;;37.79;22.74;96248.03;10445769;27;99749;-67
2022/05/18 15:51:16;;;;;;;2.78;1.90;;;;;;;38.01;22.70;96240.75;10440935;27;96729;-67
2022/05/18 15:56:24;;;;;;;4.85;1.80;;;;;;;38.26;21.99;96241.84;10437457;27;96815;-67
2022/05/18 16:01:29;;;;;;;3.83;1.40;;;;;;;38.52;21.74;96241.72;10440689;27;98003;-67
2022/05/18 16:06:34;;;;;;;3.33;1.50;;;;;;;38.44;21.98;96237.09;10445006;27;96885;-67
2022/05/18 16:11:39;;;;;;;2.20;1.60;;;;;;;37.66;22.81;96235.34;10434930;27;96831;-67
2022/05/18 16:16:44;;;;;;;3.05;1.80;;;;;;;37.75;23.08;96233.44;10432873;27;97205;-67
2022/05/18 16:21:47;;;;;;;3.17;1.90;;;;;;;38.24;22.05;96224.97;10436600;27;96903;-67
2022/05/18 16:26:50;;;;;;;5.28;1.90;;;;;;;38.18;21.72;96229.03;10421226;27;96967;-67
2022/05/18 16:31:54;;;;;;;4.38;1.70;;;;;;;38.16;21.65;96232.03;10430316;27;99814;-67
2022/05/18 16:36:58;;;;;;;3.22;1.55;;;;;;;37.95;21.76;96231.94;10424155;27;96722;-67
2022/05/18 16:42:01;;;;;;;4.57;1.60;;;;;;;37.28;22.60;96233.28;10435256;27;101885;-67
2022/05/18 16:47:05;;;;;;;3.83;1.60;;;;;;;37.24;22.02;96229.59;10418280;27;97879;-67
2022/05/18 16:52:08;;;;;;;3.45;1.60;;;;;;;37.24;21.67;96229.59;10423649;27;96924;-67
2022/05/18 16:57:23;;;;;;;2.85;1.40;;;;;;;36.87;22.54;96237.22;10428173;27;96861;-67
2022/05/18 17:02:28;;;;;;;3.25;1.67;;;;;;;36.51;22.46;96230.06;10429493;27;98189;-67
2022/05/18 17:07:32;;;;;;;4.13;1.60;;;;;;;36.70;22.83;96227.88;10400198;27;98917;-67
2022/05/18 17:12:38;;;;;;;5.03;2.03;;;;;;;36.40;23.01;96235.78;10425647;27;96821;-67
2022/05/18 17:17:42;;;;;;;3.53;1.65;;;;;;;36.39;22.53;96236.91;10413570;27;98421;-67
2022/05/18 17:22:45;;;;;;;3.53;2.00;;;;;;;35.81;22.81;96240.59;10386038;27;98733;-67
2022/05/18 17:27:48;;;;;;;2.60;1.70;;;;;;;35.48;23.43;96233.47;10404954;27;97424;-67
2022/05/18 17:32:54;;;;;;;3.30;1.52;;;;;;;35.09;24.86;96228.63;10425894;27;97303;-67
2022/05/18 17:37:57;;;;;;;4.30;1.77;;;;;;;34.55;27.68;96234.63;10407135;27;96832;-66
2022/05/18 17:43:00;;;;;;;3.35;2.03;;;;;;;33.72;29.48;96228.25;10398428;27;98369;-66
2022/05/18 17:48:09;;;;;;;3.95;1.77;;;;;;;32.76;30.51;96234.75;10408779;27;96809;-67
2022/05/18 17:53:12;;;;;;;3.65;1.50;;;;;;;31.68;32.44;96242.03;10403811;27;96927;-66
2022/05/18 17:58:15;;;;;;;9.00;2.60;;;;;;;30.96;33.18;96237.09;10394226;27;97290;-66
2022/05/18 18:03:25;;;;;;;4.30;2.67;;;;;;;30.09;34.29;96235.47;10383607;27;96905;-67
2022/05/18 18:08:29;;;;;;;4.13;2.22;;;;;;;29.21;35.45;96241.13;10395369;27;96943;-66
2022/05/18 18:13:33;;;;;;;4.28;2.40;;;;;;;28.46;36.59;96239.50;10378070;28;96878;-66
2022/05/18 18:18:40;;;;;;;4.35;2.40;;;;;;;27.68;37.46;96250.81;10386734;27;97003;-66
2022/05/18 18:23:46;;;;;;;4.10;2.13;;;;;;;27.28;38.08;96249.34;10411126;27;96973;-66
2022/05/18 18:28:49;;;;;;;4.90;2.47;;;;;;;26.79;39.13;96252.03;10399544;27;97611;-66
2022/05/18 18:33:55;;;;;;;4.17;2.70;;;;;;;26.52;39.25;96247.44;10380949;27;97233;-66
2022/05/18 18:38:58;;;;;;;4.95;2.10;;;;;;;26.16;39.45;96263.00;10410882;27;96759;-66
2022/05/18 18:44:02;;;;;;;6.07;2.60;;;;;;;25.94;39.63;96261.06;10406956;28;96972;-66
2022/05/18 18:49:10;;;;;;;3.63;2.35;;;;;;;25.59;40.60;96270.16;10401835;27;98812;-65
2022/05/18 18:59:33;;;;;;;5.57;2.85;;;;;;;25.30;40.69;96277.38;10383812;27;100816;-66
2022/05/18 19:04:37;;;;;;;3.93;2.33;;;;;;;24.99;41.00;96276.00;10401032;27;100791;-65
2022/05/18 19:09:44;;;;;;;5.50;3.20;;;;;;;24.65;41.45;96290.00;10395777;27;97964;-65
2022/05/18 19:14:53;;;;;;;3.83;2.30;;;;;;;24.30;41.53;96290.88;10389378;27;97047;-66
2022/05/18 19:19:58;;;;;;;4.45;2.83;;;;;;;23.99;42.19;96300.03;10386310;28;96862;-66
2022/05/18 19:25:05;;;;;;;5.88;3.47;;;;;;;23.74;42.78;96303.72;10396841;27;97984;-66
2022/05/18 19:30:11;;;;;;;5.85;4.65;;;;;;;23.47;43.81;96313.16;10400373;27;97894;-65
2022/05/18 19:35:16;;;;;;;7.35;4.15;;;;;;;23.12;44.90;96311.16;10395380;28;97261;-66
2022/05/18 19:40:20;;;;;;;4.28;2.47;;;;;;;22.96;45.06;96318.72;10405613;27;97121;-65
2022/05/18 19:45:23;;;;;;;2.43;1.80;;;;;;;22.79;45.64;96323.03;10402826;27;96942;-65
2022/05/18 19:50:30;;;;;;;3.35;2.05;;;;;;;22.65;45.77;96334.84;10385235;27;98298;-65
2022/05/18 19:55:34;;;;;;;5.10;2.70;;;;;;;22.63;45.70;96340.44;10393941;27;96836;-65
2022/05/18 20:00:38;;;;;;;4.23;2.70;;;;;;;22.79;45.55;96339.81;10395334;27;96965;-65
2022/05/18 20:05:43;;;;;;;7.07;3.03;;;;;;;22.39;46.81;96342.06;10382435;27;97932;-65
2022/05/18 20:10:49;;;;;;;7.35;3.35;;;;;;;22.23;47.13;96351.41;10386108;27;97007;-65
2022/05/18 20:15:52;;;;;;;5.30;2.90;;;;;;;22.33;46.88;96350.91;10432022;27;97992;-65
2022/05/18 20:20:57;;;;;;;7.63;2.42;;;;;;;22.35;46.09;96351.50;10429116;27;96875;-65
2022/05/18 20:26:00;;;;;;;3.20;2.42;;;;;;;22.08;46.74;96358.94;10436524;27;96788;-65
2022/05/18 20:31:04;;;;;;;4.10;2.90;;;;;;;22.01;46.84;96353.66;10418423;27;97783;-65
2022/05/18 20:36:10;;;;;;;6.93;2.90;;;;;;;21.71;47.50;96359.63;10410534;27;97112;-65
2022/05/18 20:41:14;;;;;;;5.28;2.80;;;;;;;21.37;47.97;96364.28;10390958;27;96908;-65
2022/05/18 20:46:19;;;;;;;7.30;3.10;;;;;;;21.23;48.50;96378.66;10381757;27;97862;-65
2022/05/18 20:51:25;;;;;;;5.03;3.47;;;;;;;21.39;48.58;96382.66;10407612;27;96855;-65
2022/05/18 20:56:31;;;;;;;8.25;3.15;;;;;;;21.18;49.27;96386.44;10393814;27;97897;-65
2022/05/18 21:01:39;;;;;;;5.75;3.45;;;;;;;21.13;49.63;96393.19;10396413;27;97090;-65
2022/05/18 21:06:43;;;;;;;5.03;2.85;;;;;;;21.17;50.20;96398.09;10422975;27;97717;-65
2022/05/18 21:11:47;;;;;;;8.23;3.63;;;;;;;20.63;51.52;96411.47;10402107;28;98385;-65
2022/05/18 21:16:52;;;;;;;4.40;2.93;;;;;;;20.29;51.79;96409.91;10385576;28;96965;-64
2022/05/18 21:21:57;;;;;;;7.38;3.72;;;;;;;19.99;52.85;96405.81;10386360;27;96890;-65
2022/05/18 21:27:00;;;;;;;7.30;3.83;;;;;;;19.91;52.72;96406.00;10390400;27;96855;-64
2022/05/18 21:32:07;;;;;;;7.10;3.40;;;;;;;19.85;52.27;96403.34;10395412;28;96857;-64
2022/05/18 21:37:12;;;;;;;3.65;2.30;;;;;;;19.79;52.24;96404.94;10413690;27;97320;-64
2022/05/18 21:42:20;;;;;;;3.53;2.20;;;;;;;19.64;52.00;96402.47;10437159;27;96823;-64
2022/05/18 21:47:23;;;;;;;2.55;2.00;;;;;;;19.58;51.75;96414.69;10422620;27;97493;-65
2022/05/18 21:52:28;;;;;;;4.05;1.85;;;;;;;19.51;52.33;96397.94;10438082;27;96863;-65
2022/05/18 21:57:32;;;;;;;4.72;2.17;;;;;;;19.33;52.54;96408.28;10400456;27;98609;-65
2022/05/18 22:02:35;;;;;;;4.07;2.23;;;;;;;19.19;52.06;96415.38;10409173;27;96851;-65
2022/05/18 22:07:39;;;;;;;2.40;1.95;;;;;;;19.37;52.87;96414.84;10422370;27;96896;-65
2022/05/18 22:12:44;;;;;;;5.63;2.30;;;;;;;19.32;52.74;96415.41;10411837;27;97543;-64
2022/05/18 22:17:48;;;;;;;;;;;;;;;19.41;51.76;96413.41;10393071;27;97874;-65
2022/05/18 22:22:52;;;;;;;6.53;2.83;;;;;;;19.36;52.50;96421.94;10404769;27;98490;-64
2022/05/18 22:27:56;;;;;;;8.50;3.28;;;;;;;19.15;53.90;96430.03;10406407;27;98319;-64
2022/05/18 22:32:59;;;;;;;4.47;2.55;;;;;;;18.93;54.08;96440.69;10404274;27;98275;-64
2022/05/18 22:38:03;;;;;;;4.82;2.50;;;;;;;18.87;54.44;96447.59;10400735;27;102191;-65
2022/05/18 22:43:06;;;;;;;3.75;2.40;;;;;;;18.49;55.30;96447.09;10402837;27;98499;-64
2022/05/18 22:48:11;;;;;;;4.75;2.50;;;;;;;18.35;55.58;96451.47;10404054;27;96933;-64
2022/05/18 22:53:15;;;;;;;;;;;;;;;18.30;54.69;96451.22;10411556;27;96813;-64
2022/05/18 22:58:18;;;;;;;5.60;2.83;;;;;;;18.41;55.27;96456.00;10402848;27;97016;-64
2022/05/18 23:03:26;;;;;;;4.85;2.38;;;;;;;18.52;55.15;96459.16;10403953;28;98820;-64
2022/05/18 23:08:30;;;;;;;5.85;2.33;;;;;;;18.54;54.17;96463.22;10398184;27;99056;-64
2022/05/18 23:13:33;;;;;;;5.45;2.60;;;;;;;18.50;54.93;96457.50;10402605;27;97794;-64
2022/05/18 23:18:40;;;;;;;5.88;2.33;;;;;;;18.11;56.40;96455.34;10402420;27;99064;-65
2022/05/18 23:23:46;;;;;;;4.40;2.35;;;;;;;17.78;57.21;96450.53;10404977;27;97695;-64
2022/05/18 23:29:09;;;;;;;3.15;2.30;;;;;;;17.73;57.03;96437.91;10406981;27;96958;-64
2022/05/18 23:34:13;;;;;;;7.25;3.38;;;;;;;17.90;57.06;96442.94;10399940;27;98469;-64
2022/05/18 23:39:17;;;;;;;5.40;2.43;;;;;;;18.06;56.24;96453.25;10414551;27;96850;-64
2022/05/18 23:44:20;;;;;;;5.53;2.45;;;;;;;18.16;56.28;96460.06;10402110;27;96857;-64
2022/05/18 23:49:27;;;;;;;3.92;2.60;;;;;;;17.87;57.29;96453.88;10401009;28;98686;-65
2022/05/18 23:54:31;;;;;;;3.90;2.67;;;;;;;17.60;58.04;96453.59;10402371;27;96962;-64
2022/05/18 23:59:36;;;;;;;6.07;2.83;;;;;;;17.29;58.98;96462.56;10402703;27;97764;-64
